createdAt,value
2022-08-07T00:00:50.569Z,0.00
2022-08-07T00:02:36.593Z,0.00
2022-08-07T00:02:50.542Z,0.00
2022-08-07T00:03:49.507Z,0.00
2022-08-07T00:04:49.571Z,0.00
2022-08-07T00:05:49.486Z,0.00
2022-08-07T00:06:51.696Z,0.00
2022-08-07T00:07:50.629Z,0.00
2022-08-07T00:08:50.479Z,0.00
2022-08-07T00:09:59.223Z,0.00
2022-08-07T00:10:57.241Z,0.00
2022-08-07T00:11:56.118Z,0.00
2022-08-07T00:12:57.958Z,0.00
2022-08-07T00:13:50.419Z,0.00
2022-08-07T00:14:49.384Z,0.00
2022-08-07T00:15:51.251Z,0.00
2022-08-07T00:16:49.360Z,0.00
2022-08-07T00:17:49.354Z,0.00
2022-08-07T00:18:49.339Z,0.00
2022-08-07T00:20:00.883Z,0.00
2022-08-07T00:20:49.490Z,0.00
2022-08-07T00:21:57.026Z,0.00
2022-08-07T00:22:51.620Z,0.00
2022-08-07T00:23:49.284Z,0.00
2022-08-07T00:24:49.274Z,0.00
2022-08-07T00:25:58.244Z,0.00
2022-08-07T00:27:06.167Z,0.00
2022-08-07T00:27:53.125Z,0.00
2022-08-07T00:28:55.606Z,0.00
2022-08-07T00:29:50.238Z,0.00
2022-08-07T00:30:49.205Z,0.00
2022-08-07T00:31:49.231Z,0.00
2022-08-07T00:32:49.184Z,0.00
2022-08-07T00:33:49.170Z,0.00
2022-08-07T00:34:49.162Z,0.00
2022-08-07T00:35:49.353Z,0.00
2022-08-07T00:36:49.137Z,0.00
2022-08-07T00:37:49.127Z,0.00
2022-08-07T00:38:49.119Z,0.00
2022-08-07T00:39:54.564Z,0.00
2022-08-07T00:40:49.137Z,0.00
2022-08-07T00:41:53.809Z,0.00
2022-08-07T00:42:50.284Z,0.00
2022-08-07T00:44:00.412Z,0.00
2022-08-07T00:44:49.185Z,0.00
2022-08-07T00:45:49.160Z,0.00
2022-08-07T00:46:49.158Z,0.00
2022-08-07T00:48:08.277Z,0.00
2022-08-07T00:48:49.749Z,0.00
2022-08-07T00:50:20.545Z,0.00
2022-08-07T00:50:51.259Z,0.00
2022-08-07T00:51:56.697Z,0.00
2022-08-07T00:52:48.962Z,0.00
2022-08-07T00:53:50.466Z,0.00
2022-08-07T00:54:53.850Z,0.00
2022-08-07T00:56:02.765Z,0.00
2022-08-07T00:56:50.146Z,0.00
2022-08-07T00:57:55.366Z,0.00
2022-08-07T00:58:50.138Z,0.00
2022-08-07T00:59:48.884Z,0.00
2022-08-07T01:00:53.432Z,0.00
2022-08-07T01:01:48.931Z,0.00
2022-08-07T01:02:48.855Z,0.00
2022-08-07T01:03:57.093Z,0.00
2022-08-07T01:04:49.853Z,0.00
2022-08-07T01:05:53.520Z,0.00
2022-08-07T01:06:48.810Z,0.00
2022-08-07T01:07:49.150Z,0.00
2022-08-07T01:08:53.946Z,0.00
2022-08-07T01:10:04.254Z,0.00
2022-08-07T01:10:54.407Z,0.00
2022-08-07T01:12:09.144Z,0.00
2022-08-07T01:12:53.894Z,0.00
2022-08-07T01:13:55.920Z,0.00
2022-08-07T01:14:48.723Z,0.00
2022-08-07T01:16:04.985Z,0.00
2022-08-07T01:16:48.699Z,0.00
2022-08-07T01:17:48.687Z,0.00
2022-08-07T01:18:48.678Z,0.00
2022-08-07T01:19:52.391Z,0.00
2022-08-07T01:20:57.433Z,0.00
2022-08-07T01:21:48.645Z,0.00
2022-08-07T01:22:54.349Z,0.00
2022-08-07T01:23:48.625Z,0.00
2022-08-07T01:24:48.613Z,0.00
2022-08-07T01:25:55.146Z,0.00
2022-08-07T01:26:52.270Z,0.00
2022-08-07T01:27:51.459Z,0.00
2022-08-07T01:28:48.654Z,0.00
2022-08-07T01:29:48.555Z,0.00
2022-08-07T01:30:48.547Z,0.00
2022-08-07T01:31:48.840Z,0.00
2022-08-07T01:32:48.526Z,0.00
2022-08-07T01:33:55.484Z,0.00
2022-08-07T01:34:49.210Z,0.00
2022-08-07T01:35:54.055Z,0.00
2022-08-07T01:36:52.644Z,0.00
2022-08-07T01:37:49.493Z,0.00
2022-08-07T01:38:48.461Z,0.00
2022-08-07T01:39:48.527Z,0.00
2022-08-07T01:40:48.437Z,0.00
2022-08-07T01:42:01.434Z,0.00
2022-08-07T01:42:57.602Z,0.00
2022-08-07T01:43:48.405Z,0.00
2022-08-07T01:44:48.394Z,0.00
2022-08-07T01:45:48.389Z,0.00
2022-08-07T01:46:49.395Z,0.00
2022-08-07T01:48:21.030Z,0.00
2022-08-07T01:48:49.373Z,0.00
2022-08-07T01:49:48.337Z,0.00
2022-08-07T01:50:48.329Z,0.00
2022-08-07T01:52:04.071Z,0.00
2022-08-07T01:52:54.098Z,0.00
2022-08-07T01:54:08.879Z,0.00
2022-08-07T01:54:48.284Z,0.00
2022-08-07T01:55:48.272Z,0.00
2022-08-07T01:56:49.305Z,0.00
2022-08-07T01:58:06.136Z,0.00
2022-08-07T01:58:48.241Z,0.00
2022-08-07T01:59:48.346Z,0.00
2022-08-07T02:00:49.260Z,0.00
2022-08-07T02:01:59.942Z,0.00
2022-08-07T02:03:16.010Z,0.00
2022-08-07T02:03:50.875Z,0.00
2022-08-07T02:04:56.473Z,0.00
2022-08-07T02:05:59.964Z,0.00
2022-08-07T02:06:48.153Z,0.00
2022-08-07T02:07:51.115Z,0.00
2022-08-07T02:08:48.130Z,0.00
2022-08-07T02:09:52.721Z,0.00
2022-08-07T02:10:48.667Z,0.00
2022-08-07T02:12:03.572Z,0.00
2022-08-07T02:12:50.257Z,0.00
2022-08-07T02:13:57.478Z,0.00
2022-08-07T02:14:48.064Z,0.00
2022-08-07T02:15:48.051Z,0.00
2022-08-07T02:16:48.049Z,0.00
2022-08-07T02:17:49.534Z,0.00
2022-08-07T02:18:48.023Z,0.00
2022-08-07T02:20:07.241Z,0.00
2022-08-07T02:20:49.022Z,0.00
2022-08-07T02:21:56.191Z,0.00
2022-08-07T02:22:54.924Z,0.00
2022-08-07T02:23:47.965Z,0.00
2022-08-07T02:24:48.609Z,0.00
2022-08-07T02:26:30.636Z,0.00
2022-08-07T02:26:47.933Z,0.00
2022-08-07T02:27:52.183Z,0.00
2022-08-07T02:28:47.934Z,0.00
2022-08-07T02:29:53.940Z,0.00
2022-08-07T02:30:47.889Z,0.00
2022-08-07T02:31:48.586Z,0.00
2022-08-07T02:33:00.593Z,0.00
2022-08-07T02:34:01.888Z,0.00
2022-08-07T02:34:48.966Z,0.00
2022-08-07T02:36:30.917Z,0.00
2022-08-07T02:36:47.824Z,0.00
2022-08-07T02:37:47.811Z,0.00
2022-08-07T02:38:50.660Z,0.00
2022-08-07T02:40:02.572Z,0.00
2022-08-07T02:40:50.441Z,0.00
2022-08-07T02:41:54.268Z,0.00
2022-08-07T02:42:48.782Z,0.00
2022-08-07T02:43:49.097Z,0.00
2022-08-07T02:44:48.239Z,0.00
2022-08-07T02:45:58.635Z,0.00
2022-08-07T02:46:52.849Z,0.00
2022-08-07T02:47:49.164Z,0.00
2022-08-07T02:48:54.945Z,0.00
2022-08-07T02:49:57.852Z,0.00
2022-08-07T02:50:48.697Z,0.00
2022-08-07T02:51:51.977Z,0.00
2022-08-07T02:52:48.641Z,0.00
2022-08-07T02:53:47.635Z,0.00
2022-08-07T02:54:47.630Z,0.00
2022-08-07T02:56:04.025Z,0.00
2022-08-07T02:56:48.627Z,0.00
2022-08-07T02:57:47.593Z,0.00
2022-08-07T02:58:48.344Z,0.00
2022-08-07T02:59:55.125Z,0.00
2022-08-07T03:00:48.619Z,0.00
2022-08-07T03:01:47.575Z,0.00
2022-08-07T03:02:54.330Z,0.00
2022-08-07T03:03:49.815Z,0.00
2022-08-07T03:04:47.519Z,0.00
2022-08-07T03:05:47.503Z,0.00
2022-08-07T03:06:48.359Z,4.00
2022-08-07T03:08:05.053Z,4.00
2022-08-07T03:08:48.496Z,0.00
2022-08-07T03:09:51.980Z,0.00
2022-08-07T03:10:47.449Z,4.00
2022-08-07T03:11:51.650Z,4.00
2022-08-07T03:12:47.428Z,0.00
2022-08-07T03:13:49.685Z,4.00
2022-08-07T03:14:51.984Z,4.00
2022-08-07T03:15:56.696Z,4.00
2022-08-07T03:16:47.390Z,4.00
2022-08-07T03:17:53.396Z,8.00
2022-08-07T03:18:48.386Z,8.00
2022-08-07T03:19:55.063Z,12.00
2022-08-07T03:20:48.363Z,8.00
2022-08-07T03:21:50.874Z,12.00
2022-08-07T03:22:50.295Z,16.00
2022-08-07T03:24:20.591Z,16.00
2022-08-07T03:24:47.295Z,20.00
2022-08-07T03:25:47.282Z,24.00
2022-08-07T03:26:57.851Z,24.00
2022-08-07T03:27:59.712Z,28.00
2022-08-07T03:28:48.279Z,32.00
2022-08-07T03:29:50.546Z,36.00
2022-08-07T03:30:47.229Z,44.00
2022-08-07T03:31:49.952Z,48.00
2022-08-07T03:32:57.062Z,56.00
2022-08-07T03:33:47.195Z,64.00
2022-08-07T03:35:01.063Z,72.00
2022-08-07T03:35:50.110Z,84.00
2022-08-07T03:36:47.163Z,96.00
2022-08-07T03:37:54.054Z,108.00
2022-08-07T03:38:47.149Z,120.00
2022-08-07T03:40:13.106Z,136.00
2022-08-07T03:40:47.163Z,152.00
2022-08-07T03:41:47.719Z,168.00
2022-08-07T03:42:47.095Z,188.00
2022-08-07T03:43:57.294Z,208.00
2022-08-07T03:44:53.496Z,232.00
2022-08-07T03:45:47.687Z,256.00
2022-08-07T03:47:13.441Z,276.00
2022-08-07T03:47:51.215Z,304.00
2022-08-07T03:49:02.712Z,332.00
2022-08-07T03:49:47.701Z,360.00
2022-08-07T03:50:55.662Z,396.00
2022-08-07T03:52:01.208Z,424.00
2022-08-07T03:52:48.011Z,460.00
2022-08-07T03:54:01.952Z,496.00
2022-08-07T03:54:54.818Z,536.00
2022-08-07T03:55:58.188Z,572.00
2022-08-07T03:57:03.728Z,612.00
2022-08-07T03:58:33.677Z,656.00
2022-08-07T03:59:09.712Z,700.00
2022-08-07T04:00:01.701Z,744.00
2022-08-07T04:00:54.008Z,792.00
2022-08-07T04:01:46.977Z,836.00
2022-08-07T04:02:47.475Z,888.00
2022-08-07T04:03:49.735Z,936.00
2022-08-07T04:04:47.881Z,988.00
2022-08-07T04:05:46.842Z,1044.00
2022-08-07T04:06:50.872Z,1096.00
2022-08-07T04:07:47.716Z,1152.00
2022-08-07T04:08:46.812Z,1212.00
2022-08-07T04:09:50.512Z,1268.00
2022-08-07T04:10:54.832Z,1328.00
2022-08-07T04:12:23.946Z,1388.00
2022-08-07T04:12:47.790Z,1448.00
2022-08-07T04:14:09.945Z,1512.00
2022-08-07T04:14:47.739Z,1576.00
2022-08-07T04:15:49.138Z,1636.00
2022-08-07T04:16:58.705Z,1700.00
2022-08-07T04:18:56.815Z,1768.00
2022-08-07T04:18:59.130Z,1832.00
2022-08-07T04:19:52.682Z,1900.00
2022-08-07T04:20:54.759Z,1964.00
2022-08-07T04:21:58.841Z,2024.00
2022-08-07T04:22:53.817Z,2092.00
2022-08-07T04:24:07.233Z,2156.00
2022-08-07T04:24:47.658Z,2224.00
2022-08-07T04:25:46.625Z,2288.00
2022-08-07T04:26:46.613Z,2352.00
2022-08-07T04:28:00.280Z,2416.00
2022-08-07T04:28:46.588Z,2480.00
2022-08-07T04:29:48.822Z,2544.00
2022-08-07T04:30:57.400Z,2608.00
2022-08-07T04:32:03.085Z,2668.00
2022-08-07T04:32:47.798Z,2732.00
2022-08-07T04:33:46.540Z,2796.00
2022-08-07T04:34:47.549Z,2868.00
2022-08-07T04:35:50.512Z,2944.00
2022-08-07T04:36:48.866Z,3012.00
2022-08-07T04:38:03.520Z,3080.00
2022-08-07T04:38:47.506Z,3144.00
2022-08-07T04:39:49.745Z,3208.00
2022-08-07T04:40:51.828Z,3264.00
2022-08-07T04:41:48.280Z,3320.00
2022-08-07T04:42:46.438Z,3384.00
2022-08-07T04:44:09.827Z,3448.00
2022-08-07T04:44:54.616Z,3516.00
2022-08-07T04:46:00.913Z,3680.00
2022-08-07T04:47:04.612Z,3792.00
2022-08-07T04:48:00.759Z,3808.00
2022-08-07T04:48:47.394Z,3880.00
2022-08-07T04:49:57.384Z,3964.00
2022-08-07T04:50:52.881Z,4040.00
2022-08-07T04:51:46.339Z,4096.00
2022-08-07T04:52:51.002Z,4176.00
2022-08-07T04:54:05.535Z,4244.00
2022-08-07T04:54:50.711Z,4308.00
2022-08-07T04:58:11.440Z,4380.00
2022-08-07T04:58:15.262Z,4532.00
2022-08-07T04:58:24.423Z,4460.00
2022-08-07T05:00:11.170Z,4696.00
2022-08-07T05:00:46.300Z,4824.00
2022-08-07T05:01:46.226Z,5016.00
2022-08-07T05:02:46.220Z,5184.00
2022-08-07T05:04:06.725Z,6248.00
2022-08-07T05:04:50.166Z,7144.00
2022-08-07T05:05:53.028Z,7260.00
2022-08-07T05:06:51.653Z,7472.00
2022-08-07T05:07:48.492Z,7864.00
2022-08-07T05:09:01.206Z,8040.00
2022-08-07T05:09:47.167Z,8060.00
2022-08-07T05:10:46.130Z,8156.00
2022-08-07T05:11:58.210Z,8312.00
2022-08-07T05:12:51.486Z,8592.00
2022-08-07T05:14:53.975Z,8740.00
2022-08-07T05:14:54.969Z,9456.00
2022-08-07T05:15:47.101Z,10300.00
2022-08-07T05:16:46.068Z,10416.00
2022-08-07T05:17:52.204Z,10044.00
2022-08-07T05:18:47.067Z,10096.00
2022-08-07T05:19:46.034Z,10416.00
2022-08-07T05:20:46.026Z,10360.00
2022-08-07T05:22:00.035Z,10528.00
2022-08-07T05:22:45.997Z,10588.00
2022-08-07T05:23:45.984Z,10928.00
2022-08-07T05:24:45.975Z,10600.00
2022-08-07T05:26:11.611Z,10544.00
2022-08-07T05:26:47.178Z,10620.00
2022-08-07T05:28:03.307Z,10820.00
2022-08-07T05:28:48.420Z,10832.00
2022-08-07T05:29:51.266Z,11136.00
2022-08-07T05:30:47.222Z,11120.00
2022-08-07T05:31:47.628Z,10196.00
2022-08-07T05:32:45.890Z,9848.00
2022-08-07T05:34:01.283Z,10652.00
2022-08-07T05:34:46.909Z,11540.00
2022-08-07T05:35:45.856Z,12008.00
2022-08-07T05:36:48.956Z,11704.00
2022-08-07T05:37:45.834Z,11244.00
2022-08-07T05:39:00.107Z,11328.00
2022-08-07T05:40:18.143Z,11792.00
2022-08-07T05:40:51.383Z,12544.00
2022-08-07T05:42:02.657Z,12948.00
2022-08-07T05:42:56.204Z,13036.00
2022-08-07T05:44:07.537Z,12976.00
2022-08-07T05:44:46.484Z,12532.00
2022-08-07T05:45:48.312Z,12180.00
2022-08-07T05:46:45.730Z,10484.00
2022-08-07T05:48:01.331Z,9068.00
2022-08-07T05:48:58.048Z,8836.00
2022-08-07T05:49:45.702Z,9396.00
2022-08-07T05:50:45.688Z,10612.00
2022-08-07T05:51:46.496Z,10916.00
2022-08-07T05:52:45.695Z,10380.00
2022-08-07T05:54:13.598Z,12892.00
2022-08-07T05:54:56.087Z,13472.00
2022-08-07T05:56:02.390Z,12164.00
2022-08-07T05:56:45.626Z,10820.00
2022-08-07T05:57:45.616Z,10624.00
2022-08-07T05:58:49.417Z,10412.00
2022-08-07T05:59:56.063Z,10004.00
2022-08-07T06:00:46.318Z,12352.00
2022-08-07T06:01:45.602Z,15428.00
2022-08-07T06:02:45.558Z,14564.00
2022-08-07T06:03:56.902Z,12252.00
2022-08-07T06:04:45.571Z,15776.00
2022-08-07T06:05:49.079Z,20672.00
2022-08-07T06:06:47.877Z,21792.00
2022-08-07T06:08:13.834Z,19104.00
2022-08-07T06:08:46.720Z,12904.00
2022-08-07T06:10:05.035Z,9324.00
2022-08-07T06:10:46.510Z,8992.00
2022-08-07T06:11:45.463Z,9144.00
2022-08-07T06:12:45.449Z,9212.00
2022-08-07T06:14:11.795Z,9096.00
2022-08-07T06:14:49.341Z,9128.00
2022-08-07T06:15:45.463Z,9208.00
2022-08-07T06:16:45.417Z,9364.00
2022-08-07T06:17:50.693Z,9620.00
2022-08-07T06:18:51.735Z,9744.00
2022-08-07T06:19:58.338Z,13360.00
2022-08-07T06:20:49.564Z,18080.00
2022-08-07T06:22:11.654Z,14228.00
2022-08-07T06:23:01.703Z,10284.00
2022-08-07T06:24:38.625Z,10240.00
2022-08-07T06:24:57.756Z,9476.00
2022-08-07T06:25:53.975Z,9536.00
2022-08-07T06:26:45.293Z,9508.00
2022-08-07T06:28:01.518Z,9516.00
2022-08-07T06:28:45.298Z,9652.00
2022-08-07T06:29:45.288Z,10316.00
2022-08-07T06:30:46.171Z,10140.00
2022-08-07T06:31:50.058Z,9904.00
2022-08-07T06:32:45.231Z,11012.00
2022-08-07T06:33:45.219Z,10528.00
2022-08-07T06:34:45.562Z,9956.00
2022-08-07T06:35:47.639Z,10088.00
2022-08-07T06:36:45.185Z,10264.00
2022-08-07T06:37:45.540Z,10976.00
2022-08-07T06:38:58.414Z,14056.00
2022-08-07T06:40:16.205Z,17888.00
2022-08-07T06:40:45.876Z,18560.00
2022-08-07T06:42:01.138Z,13548.00
2022-08-07T06:42:46.649Z,11648.00
2022-08-07T06:43:46.137Z,11312.00
2022-08-07T06:44:45.099Z,11868.00
2022-08-07T06:45:45.088Z,14384.00
2022-08-07T06:46:53.361Z,12752.00
2022-08-07T06:47:57.339Z,11424.00
2022-08-07T06:48:46.078Z,14752.00
2022-08-07T06:49:51.110Z,16448.00
2022-08-07T06:50:47.858Z,13896.00
2022-08-07T06:51:49.551Z,15360.00
2022-08-07T06:52:45.203Z,17504.00
2022-08-07T06:55:29.607Z,17792.00
2022-08-07T06:55:34.340Z,19744.00
2022-08-07T06:56:00.436Z,22272.00
2022-08-07T06:56:49.842Z,18432.00
2022-08-07T06:57:52.117Z,18688.00
2022-08-07T07:00:11.913Z,23968.00
2022-08-07T07:00:15.098Z,21856.00
2022-08-07T07:00:45.945Z,35040.00
2022-08-07T07:01:50.635Z,33408.00
2022-08-07T07:02:54.569Z,33312.00
2022-08-07T07:03:50.009Z,36992.00
2022-08-07T07:04:55.165Z,41472.00
2022-08-07T07:06:05.362Z,41472.00
2022-08-07T07:07:00.613Z,47040.00
2022-08-07T07:07:59.550Z,47072.00
2022-08-07T07:08:46.624Z,44256.00
2022-08-07T07:09:44.824Z,42432.00
2022-08-07T07:10:54.951Z,38368.00
2022-08-07T07:12:08.936Z,35296.00
2022-08-07T07:12:48.903Z,31776.00
2022-08-07T07:13:57.833Z,30208.00
2022-08-07T07:14:45.792Z,27904.00
2022-08-07T07:15:44.802Z,27392.00
2022-08-07T07:16:50.578Z,26816.00
2022-08-07T07:17:45.764Z,25760.00
2022-08-07T07:18:48.136Z,26688.00
2022-08-07T07:19:57.522Z,28896.00
2022-08-07T07:20:44.704Z,30208.00
2022-08-07T07:22:05.152Z,57152.00
2022-08-07T07:24:08.316Z,58112.00
2022-08-07T07:24:09.176Z,53216.00
2022-08-07T07:24:58.369Z,52800.00
2022-08-07T07:26:35.183Z,52672.00
2022-08-07T07:26:49.582Z,50432.00
2022-08-07T07:27:55.557Z,51680.00
2022-08-07T07:29:28.522Z,51328.00
2022-08-07T07:30:09.118Z,49312.00
2022-08-07T07:30:44.598Z,52032.00
2022-08-07T07:31:46.828Z,53696.00
2022-08-07T07:32:44.576Z,52256.00
2022-08-07T07:33:44.567Z,54656.00
2022-08-07T07:34:45.870Z,57344.00
2022-08-07T07:36:04.087Z,58048.00
2022-08-07T07:36:48.015Z,57760.00
2022-08-07T07:37:52.507Z,57216.00
2022-08-07T07:38:46.126Z,57408.00
2022-08-07T07:39:52.423Z,56608.00
2022-08-07T07:40:44.785Z,56768.00
2022-08-07T07:41:50.789Z,54112.00
2022-08-07T07:42:51.067Z,56448.00
2022-08-07T07:44:14.614Z,57760.00
2022-08-07T07:44:45.586Z,59488.00
2022-08-07T07:46:39.830Z,62720.00
2022-08-07T07:46:55.757Z,59456.00
2022-08-07T07:47:52.627Z,61600.00
2022-08-07T07:48:45.931Z,62688.00
2022-08-07T07:50:33.220Z,64320.00
2022-08-07T07:50:45.473Z,64672.00
2022-08-07T07:51:57.808Z,62912.00
2022-08-07T07:52:46.946Z,62368.00
2022-08-07T07:53:52.521Z,65248.00
2022-08-07T07:54:51.193Z,61376.00
2022-08-07T07:55:54.922Z,61536.00
2022-08-07T07:56:44.431Z,60864.00
2022-08-07T07:57:52.388Z,65056.00
2022-08-07T07:58:44.679Z,62784.00
2022-08-07T07:59:52.223Z,64800.00
2022-08-07T08:00:47.784Z,63392.00
2022-08-07T08:02:02.378Z,66688.00
2022-08-07T08:03:01.295Z,62848.00
2022-08-07T08:04:10.231Z,65920.00
2022-08-07T08:04:45.328Z,62880.00
2022-08-07T08:05:55.247Z,64160.00
2022-08-07T08:06:52.323Z,64192.00
2022-08-07T08:07:51.441Z,65600.00
2022-08-07T08:08:44.193Z,64064.00
2022-08-07T08:09:52.369Z,67488.00
2022-08-07T08:10:45.258Z,66848.00
2022-08-07T08:12:00.120Z,64096.00
2022-08-07T08:12:52.571Z,67456.00
2022-08-07T08:13:53.890Z,62720.00
2022-08-07T08:14:45.155Z,67776.00
2022-08-07T08:15:59.214Z,62688.00
2022-08-07T08:16:50.576Z,65568.00
2022-08-07T08:17:57.687Z,60832.00
2022-08-07T08:18:45.194Z,62016.00
2022-08-07T08:20:17.523Z,67200.00
2022-08-07T08:20:44.075Z,62592.00
2022-08-07T08:21:59.143Z,64512.00
2022-08-07T08:22:55.829Z,67232.00
2022-08-07T08:23:45.139Z,66272.00
2022-08-07T08:24:45.456Z,67552.00
2022-08-07T08:25:49.192Z,73024.00
2022-08-07T08:26:44.006Z,67168.00
2022-08-07T08:27:56.457Z,68128.00
2022-08-07T08:28:45.070Z,62400.00
2022-08-07T08:29:54.114Z,66048.00
2022-08-07T08:30:51.158Z,68672.00
2022-08-07T08:32:17.521Z,66336.00
2022-08-07T08:32:49.025Z,68896.00
2022-08-07T08:33:49.596Z,68256.00
2022-08-07T08:34:44.850Z,70336.00
2022-08-07T08:35:49.970Z,64896.00
2022-08-07T08:36:46.275Z,65504.00
2022-08-07T08:38:01.736Z,68800.00
2022-08-07T08:38:44.948Z,75104.00
2022-08-07T08:39:54.876Z,70304.00
2022-08-07T08:40:46.845Z,74848.00
2022-08-07T08:41:57.311Z,71296.00
2022-08-07T08:42:43.860Z,70816.00
2022-08-07T08:43:56.269Z,74016.00
2022-08-07T08:44:44.748Z,77344.00
2022-08-07T08:45:58.957Z,73024.00
2022-08-07T08:46:45.938Z,72160.00
2022-08-07T08:47:52.403Z,75968.00
2022-08-07T08:48:43.782Z,75456.00
2022-08-07T08:50:02.126Z,79296.00
2022-08-07T08:50:43.763Z,75936.00
2022-08-07T08:52:12.971Z,78624.00
2022-08-07T08:52:54.276Z,78688.00
2022-08-07T08:53:43.736Z,79328.00
2022-08-07T08:54:43.721Z,82304.00
2022-08-07T08:55:53.262Z,81152.00
2022-08-07T08:56:47.302Z,82400.00
2022-08-07T08:57:43.702Z,80128.00
2022-08-07T08:58:43.680Z,82816.00
2022-08-07T08:59:48.039Z,82528.00
2022-08-07T09:00:48.650Z,82304.00
2022-08-07T09:01:46.447Z,80608.00
2022-08-07T09:02:43.818Z,83520.00
2022-08-07T09:03:47.352Z,73952.00
2022-08-07T09:04:43.621Z,79200.00
2022-08-07T09:05:43.617Z,84320.00
2022-08-07T09:06:47.871Z,73856.00
2022-08-07T09:07:46.400Z,79616.00
2022-08-07T09:08:43.578Z,87008.00
2022-08-07T09:09:43.574Z,87264.00
2022-08-07T09:10:44.244Z,83680.00
2022-08-07T09:11:55.449Z,85280.00
2022-08-07T09:12:53.430Z,87744.00
2022-08-07T09:13:44.565Z,84704.00
2022-08-07T09:14:50.998Z,86240.00
2022-08-07T09:16:22.880Z,84704.00
2022-08-07T09:16:45.649Z,83616.00
2022-08-07T09:17:59.505Z,88640.00
2022-08-07T09:18:52.998Z,84768.00
2022-08-07T09:19:51.609Z,83232.00
2022-08-07T09:20:43.461Z,91808.00
2022-08-07T09:22:09.713Z,88032.00
2022-08-07T09:24:33.848Z,84288.00
2022-08-07T09:24:54.825Z,90656.00
2022-08-07T09:24:58.995Z,85152.00
2022-08-07T09:25:44.432Z,83616.00
2022-08-07T09:26:47.909Z,87040.00
2022-08-07T09:28:00.711Z,84192.00
2022-08-07T09:30:01.830Z,89120.00
2022-08-07T09:30:03.873Z,92768.00
2022-08-07T09:30:46.469Z,84640.00
2022-08-07T09:31:48.601Z,89952.00
2022-08-07T09:32:44.364Z,88704.00
2022-08-07T09:33:56.769Z,77856.00
2022-08-07T09:34:43.329Z,94816.00
2022-08-07T09:36:03.326Z,106720.00
2022-08-07T09:36:46.745Z,90752.00
2022-08-07T09:37:48.162Z,101152.00
2022-08-07T09:38:43.281Z,108384.00
2022-08-07T09:39:55.488Z,99808.00
2022-08-07T09:40:44.296Z,99424.00
2022-08-07T09:42:03.217Z,97792.00
2022-08-07T09:42:45.579Z,91488.00
2022-08-07T09:44:06.092Z,101472.00
2022-08-07T09:44:58.656Z,97024.00
2022-08-07T09:47:51.179Z,89376.00
2022-08-07T09:47:51.427Z,96128.00
2022-08-07T09:47:56.157Z,93504.00
2022-08-07T09:48:56.104Z,97856.00
2022-08-07T09:50:00.934Z,93440.00
2022-08-07T09:50:43.167Z,98656.00
2022-08-07T09:52:10.470Z,91872.00
2022-08-07T09:52:44.175Z,98112.00
2022-08-07T09:53:50.111Z,104608.00
2022-08-07T09:54:43.125Z,89248.00
2022-08-07T09:56:03.650Z,105184.00
2022-08-07T09:56:43.104Z,102272.00
2022-08-07T09:57:46.617Z,85536.00
2022-08-07T09:58:43.081Z,101376.00
2022-08-07T10:00:00.258Z,97152.00
2022-08-07T10:00:43.064Z,90112.00
2022-08-07T10:01:50.954Z,99840.00
2022-08-07T10:02:55.072Z,94432.00
2022-08-07T10:04:05.692Z,95328.00
2022-08-07T10:04:45.925Z,97536.00
2022-08-07T10:06:01.324Z,103168.00
2022-08-07T10:06:53.884Z,96896.00
2022-08-07T10:07:53.801Z,86560.00
2022-08-07T10:08:44.019Z,96288.00
2022-08-07T10:10:01.131Z,95296.00
2022-08-07T10:11:16.916Z,84544.00
2022-08-07T10:12:01.259Z,92672.00
2022-08-07T10:12:52.661Z,92864.00
2022-08-07T10:14:00.337Z,82880.00
2022-08-07T10:14:42.944Z,91104.00
2022-08-07T10:15:44.761Z,102272.00
2022-08-07T10:16:43.180Z,89952.00
2022-08-07T10:18:02.690Z,85664.00
2022-08-07T10:18:42.887Z,94048.00
2022-08-07T10:19:42.874Z,88480.00
2022-08-07T10:20:44.443Z,92768.00
2022-08-07T10:22:12.664Z,94240.00
2022-08-07T10:22:43.090Z,84256.00
2022-08-07T10:24:05.648Z,90496.00
2022-08-07T10:24:42.827Z,96512.00
2022-08-07T10:25:43.624Z,88896.00
2022-08-07T10:26:44.194Z,88320.00
2022-08-07T10:27:46.045Z,99680.00
2022-08-07T10:28:49.518Z,99808.00
2022-08-07T10:29:46.018Z,86496.00
2022-08-07T10:30:42.772Z,95392.00
2022-08-07T10:31:42.978Z,114272.00
2022-08-07T10:32:52.512Z,99552.00
2022-08-07T10:34:06.143Z,82656.00
2022-08-07T10:34:42.735Z,95424.00
2022-08-07T10:35:55.205Z,105920.00
2022-08-07T10:36:45.503Z,102496.00
2022-08-07T10:38:00.132Z,37056.00
2022-08-07T10:38:48.362Z,96672.00
2022-08-07T10:40:02.662Z,104128.00
2022-08-07T10:40:42.677Z,99552.00
2022-08-07T10:41:51.773Z,93344.00
2022-08-07T10:42:42.757Z,89664.00
2022-08-07T10:43:42.650Z,93376.00
2022-08-07T10:44:45.127Z,91392.00
2022-08-07T10:45:44.610Z,94016.00
2022-08-07T10:46:42.761Z,98432.00
2022-08-07T10:47:51.498Z,98432.00
2022-08-07T10:48:44.154Z,104672.00
2022-08-07T10:49:49.444Z,94560.00
2022-08-07T10:50:44.857Z,99712.00
2022-08-07T10:52:01.825Z,108064.00
2022-08-07T10:52:43.593Z,94560.00
2022-08-07T10:53:44.983Z,90080.00
2022-08-07T10:54:42.553Z,105152.00
2022-08-07T10:55:43.561Z,109312.00
2022-08-07T10:56:42.523Z,98944.00
2022-08-07T10:57:42.512Z,93792.00
2022-08-07T10:58:42.508Z,104864.00
2022-08-07T10:59:47.561Z,105824.00
2022-08-07T11:00:43.262Z,106368.00
2022-08-07T11:01:51.717Z,111584.00
2022-08-07T11:02:42.516Z,48192.00
2022-08-07T11:03:54.966Z,97664.00
2022-08-07T11:04:42.447Z,41856.00
2022-08-07T11:05:50.646Z,59104.00
2022-08-07T11:06:44.482Z,87616.00
2022-08-07T11:07:58.853Z,75744.00
2022-08-07T11:08:43.437Z,85696.00
2022-08-07T11:10:07.979Z,95776.00
2022-08-07T11:10:43.417Z,99008.00
2022-08-07T11:11:42.776Z,102496.00
2022-08-07T11:12:43.332Z,103392.00
2022-08-07T11:14:44.399Z,101792.00
2022-08-07T11:14:57.343Z,29120.00
2022-08-07T11:15:42.347Z,21088.00
2022-08-07T11:16:42.334Z,21376.00
2022-08-07T11:17:43.529Z,21792.00
2022-08-07T11:18:42.386Z,94336.00
2022-08-07T11:19:42.304Z,108384.00
2022-08-07T11:20:42.321Z,112192.00
2022-08-07T11:21:42.831Z,91456.00
2022-08-07T11:22:46.223Z,107808.00
2022-08-07T11:23:42.270Z,94592.00
2022-08-07T11:24:45.555Z,90208.00
2022-08-07T11:25:49.814Z,97376.00
2022-08-07T11:26:48.319Z,95520.00
2022-08-07T11:28:02.628Z,96448.00
2022-08-07T11:28:42.425Z,101792.00
2022-08-07T11:29:47.278Z,95840.00
2022-08-07T11:30:43.222Z,91872.00
2022-08-07T11:31:42.245Z,108512.00
2022-08-07T11:32:42.271Z,109216.00
2022-08-07T11:33:53.526Z,91968.00
2022-08-07T11:34:42.565Z,100448.00
2022-08-07T11:35:59.093Z,108256.00
2022-08-07T11:36:42.143Z,92704.00
2022-08-07T11:37:58.497Z,81920.00
2022-08-07T11:38:43.154Z,99264.00
2022-08-07T11:40:00.991Z,118272.00
2022-08-07T11:40:49.453Z,101504.00
2022-08-07T11:42:01.955Z,91232.00
2022-08-07T11:42:43.147Z,109280.00
2022-08-07T11:44:11.001Z,116960.00
2022-08-07T11:44:52.584Z,97056.00
2022-08-07T11:45:50.065Z,93184.00
2022-08-07T11:46:43.085Z,104416.00
2022-08-07T11:47:58.880Z,97376.00
2022-08-07T11:48:58.774Z,102656.00
2022-08-07T11:50:11.250Z,108448.00
2022-08-07T11:50:44.615Z,93504.00
2022-08-07T11:51:46.706Z,88544.00
2022-08-07T11:52:41.995Z,106912.00
2022-08-07T11:53:43.259Z,100256.00
2022-08-07T11:54:46.316Z,85024.00
2022-08-07T11:56:13.983Z,97664.00
2022-08-07T11:56:43.011Z,92352.00
2022-08-07T11:57:59.321Z,86336.00
2022-08-07T11:58:42.962Z,95712.00
2022-08-07T12:00:10.083Z,93696.00
2022-08-07T12:00:42.945Z,96512.00
2022-08-07T12:01:58.639Z,101056.00
2022-08-07T12:02:41.938Z,99392.00
2022-08-07T12:03:46.002Z,101760.00
2022-08-07T12:04:41.889Z,89024.00
2022-08-07T12:05:49.244Z,88256.00
2022-08-07T12:06:51.736Z,102816.00
2022-08-07T12:07:43.080Z,101088.00
2022-08-07T12:08:42.553Z,83584.00
2022-08-07T12:09:41.836Z,77664.00
2022-08-07T12:10:42.186Z,90176.00
2022-08-07T12:11:43.393Z,93280.00
2022-08-07T12:12:41.808Z,77792.00
2022-08-07T12:13:45.013Z,84928.00